createdAt,value
2017-11-23T00:00:22.408Z,13.22
2017-11-23T00:01:22.395Z,11.63
2017-11-23T00:02:22.395Z,8.73
2017-11-23T00:03:22.381Z,11.02
2017-11-23T00:04:22.376Z,13.02
2017-11-23T00:05:22.362Z,11.83
2017-11-23T00:06:22.357Z,14.01
2017-11-23T00:07:22.353Z,12.79
2017-11-23T00:08:22.337Z,11.16
2017-11-23T00:09:22.332Z,11.68
2017-11-23T00:10:22.322Z,11.49
2017-11-23T00:11:22.316Z,12.75
2017-11-23T00:12:22.312Z,11.16
2017-11-23T00:13:22.302Z,11.08
2017-11-23T00:14:22.886Z,12.71
2017-11-23T00:15:22.285Z,12.87
2017-11-23T00:16:22.273Z,9.39
2017-11-23T00:17:22.258Z,10.76
2017-11-23T00:18:22.262Z,9.57
2017-11-23T00:19:22.250Z,9.98
2017-11-23T00:20:22.239Z,12.00
2017-11-23T00:21:22.238Z,13.64
2017-11-23T00:22:22.235Z,11.47
2017-11-23T00:23:22.222Z,16.42
2017-11-23T00:24:22.215Z,16.43
2017-11-23T00:25:22.203Z,15.50
2017-11-23T00:26:22.194Z,14.12
2017-11-23T00:27:22.889Z,15.22
2017-11-23T00:28:22.186Z,12.44
2017-11-23T00:29:22.192Z,9.56
2017-11-23T00:30:22.177Z,10.04
2017-11-23T00:31:22.165Z,10.21
2017-11-23T00:32:22.166Z,11.25
2017-11-23T00:33:22.137Z,11.53
2017-11-23T00:34:22.131Z,11.67
2017-11-23T00:35:22.132Z,14.30
2017-11-23T00:36:22.116Z,13.53
2017-11-23T00:37:22.106Z,13.14
2017-11-23T00:38:22.098Z,11.92
2017-11-23T00:39:22.101Z,12.62
2017-11-23T00:40:22.090Z,13.05
2017-11-23T00:41:22.896Z,11.69
2017-11-23T00:42:22.076Z,11.80
2017-11-23T00:43:22.066Z,14.11
2017-11-23T00:44:22.049Z,13.32
2017-11-23T00:45:22.045Z,12.10
2017-11-23T00:46:22.065Z,11.44
2017-11-23T00:47:22.035Z,12.18
2017-11-23T00:48:22.031Z,13.80
2017-11-23T00:49:22.036Z,14.22
2017-11-23T00:50:22.006Z,14.55
2017-11-23T00:51:21.999Z,12.44
2017-11-23T00:52:21.994Z,12.62
2017-11-23T00:53:21.977Z,13.32
2017-11-23T00:54:21.977Z,13.93
2017-11-23T00:55:24.903Z,12.56
2017-11-23T00:56:21.969Z,11.54
2017-11-23T00:57:21.958Z,13.35
2017-11-23T00:58:21.945Z,13.92
2017-11-23T00:59:21.940Z,11.28
2017-11-23T01:00:21.937Z,10.32
2017-11-23T01:01:21.929Z,8.88
2017-11-23T01:02:24.896Z,10.33
2017-11-23T01:03:21.910Z,12.05
2017-11-23T01:04:21.902Z,11.92
2017-11-23T01:05:21.909Z,12.43
2017-11-23T01:06:21.890Z,9.82
2017-11-23T01:07:21.878Z,9.90
2017-11-23T01:08:21.876Z,10.75
2017-11-23T01:09:21.869Z,11.98
2017-11-23T01:10:21.863Z,11.88
2017-11-23T01:11:21.847Z,13.29
2017-11-23T01:12:21.858Z,13.22
2017-11-23T01:13:21.835Z,13.20
2017-11-23T01:14:21.831Z,12.83
2017-11-23T01:15:21.824Z,11.16
2017-11-23T01:16:22.409Z,11.62
2017-11-23T01:17:21.815Z,11.84
2017-11-23T01:18:21.807Z,13.20
2017-11-23T01:19:21.798Z,12.98
2017-11-23T01:20:21.792Z,10.70
2017-11-23T01:21:22.408Z,13.92
2017-11-23T01:22:21.771Z,11.68
2017-11-23T01:23:21.760Z,16.40
2017-11-23T01:24:21.758Z,13.28
2017-11-23T01:25:21.755Z,11.01
2017-11-23T01:26:21.744Z,12.32
2017-11-23T01:27:21.739Z,9.76
2017-11-23T01:28:21.726Z,10.27
2017-11-23T01:29:21.723Z,11.47
2017-11-23T01:30:21.709Z,11.72
2017-11-23T01:31:21.707Z,10.64
2017-11-23T01:32:21.695Z,13.65
2017-11-23T01:33:21.690Z,13.33
2017-11-23T01:34:21.682Z,14.90
2017-11-23T01:35:21.681Z,10.93
2017-11-23T01:36:21.670Z,12.48
2017-11-23T01:37:21.668Z,11.80
2017-11-23T01:38:22.415Z,12.12
2017-11-23T01:39:21.643Z,11.62
2017-11-23T01:40:21.642Z,12.72
2017-11-23T01:41:21.646Z,10.00
2017-11-23T01:42:21.644Z,13.78
2017-11-23T01:43:21.616Z,10.98
2017-11-23T01:44:22.416Z,11.92
2017-11-23T01:45:21.601Z,11.94
2017-11-23T01:46:21.598Z,14.20
2017-11-23T01:47:21.586Z,14.88
2017-11-23T01:48:21.581Z,11.83
2017-11-23T01:49:21.579Z,12.38
2017-11-23T01:50:22.420Z,14.10
2017-11-23T01:51:21.559Z,12.28
2017-11-23T01:52:21.557Z,10.72
2017-11-23T01:53:21.545Z,10.76
2017-11-23T01:54:21.540Z,12.55
2017-11-23T01:55:21.533Z,11.57
2017-11-23T01:56:21.529Z,11.06
2017-11-23T01:57:21.522Z,11.75
2017-11-23T01:58:21.516Z,11.46
2017-11-23T01:59:21.503Z,14.32
2017-11-23T02:00:21.495Z,11.06
2017-11-23T02:01:21.482Z,10.51
2017-11-23T02:02:21.481Z,13.57
2017-11-23T02:03:21.492Z,12.80
2017-11-23T02:04:21.469Z,14.01
2017-11-23T02:05:22.429Z,9.90
2017-11-23T02:06:21.467Z,12.56
2017-11-23T02:07:21.447Z,9.18
2017-11-23T02:08:21.436Z,13.56
2017-11-23T02:09:21.429Z,13.73
2017-11-23T02:10:21.428Z,15.70
2017-11-23T02:11:21.416Z,17.42
2017-11-23T02:12:21.412Z,15.22
2017-11-23T02:13:21.405Z,22.46
2017-11-23T02:14:21.397Z,22.89
2017-11-23T02:15:21.392Z,18.74
2017-11-23T02:16:21.380Z,20.55
2017-11-23T02:17:21.378Z,23.19
2017-11-23T02:18:21.370Z,26.73
2017-11-23T02:19:21.365Z,18.35
2017-11-23T02:20:21.356Z,16.38
2017-11-23T02:21:21.349Z,17.83
2017-11-23T02:22:21.346Z,17.32
2017-11-23T02:23:21.335Z,15.38
2017-11-23T02:24:21.319Z,15.67
2017-11-23T02:25:21.927Z,16.63
2017-11-23T02:26:21.311Z,15.69
2017-11-23T02:27:21.314Z,14.13
2017-11-23T02:28:21.305Z,15.30
2017-11-23T02:29:21.287Z,16.30
2017-11-23T02:30:21.281Z,13.82
2017-11-23T02:31:21.935Z,16.48
2017-11-23T02:32:23.947Z,14.80
2017-11-23T02:33:21.948Z,14.80
2017-11-23T02:34:21.255Z,13.67
2017-11-23T02:35:21.250Z,12.66
2017-11-23T02:36:21.240Z,12.44
2017-11-23T02:37:21.232Z,14.32
2017-11-23T02:38:21.225Z,15.31
2017-11-23T02:39:21.222Z,15.88
2017-11-23T02:40:21.213Z,13.06
2017-11-23T02:41:21.204Z,12.32
2017-11-23T02:42:21.195Z,14.16
2017-11-23T02:43:21.191Z,13.68
2017-11-23T02:44:21.175Z,16.74
2017-11-23T02:45:21.172Z,14.59
2017-11-23T02:46:21.940Z,13.27
2017-11-23T02:47:21.165Z,13.78
2017-11-23T02:48:21.151Z,15.82
2017-11-23T02:49:21.148Z,15.62
2017-11-23T02:50:21.143Z,13.19
2017-11-23T02:51:21.129Z,15.09
2017-11-23T02:52:21.120Z,14.35
2017-11-23T02:53:21.118Z,15.32
2017-11-23T02:54:21.114Z,13.80
2017-11-23T02:55:21.106Z,14.96
2017-11-23T02:56:21.098Z,12.31
2017-11-23T02:57:21.080Z,12.79
2017-11-23T02:58:21.078Z,13.03
2017-11-23T02:59:21.068Z,12.41
2017-11-23T03:00:21.067Z,10.58
2017-11-23T03:01:21.062Z,9.96
2017-11-23T03:02:21.057Z,12.69
2017-11-23T03:03:21.049Z,11.84
2017-11-23T03:04:21.046Z,11.56
2017-11-23T03:05:21.032Z,11.21
2017-11-23T03:06:21.958Z,11.78
2017-11-23T03:07:21.018Z,13.02
2017-11-23T03:08:21.011Z,13.55
2017-11-23T03:09:21.949Z,12.60
2017-11-23T03:10:20.999Z,12.67
2017-11-23T03:11:20.998Z,12.00
2017-11-23T03:12:20.989Z,10.38
2017-11-23T03:13:20.978Z,10.32
2017-11-23T03:14:20.972Z,11.02
2017-11-23T03:15:20.971Z,10.60
2017-11-23T03:16:21.467Z,10.41
2017-11-23T03:17:20.950Z,11.41
2017-11-23T03:18:20.947Z,12.60
2017-11-23T03:19:20.932Z,10.45
2017-11-23T03:20:20.931Z,12.11
2017-11-23T03:21:20.928Z,13.86
2017-11-23T03:22:20.916Z,12.03
2017-11-23T03:23:20.908Z,13.05
2017-11-23T03:24:20.921Z,12.88
2017-11-23T03:25:20.896Z,12.13
2017-11-23T03:26:20.893Z,10.35
2017-11-23T03:27:20.880Z,11.44
2017-11-23T03:28:20.881Z,11.42
2017-11-23T03:29:20.877Z,11.72
2017-11-23T03:30:20.879Z,12.75
2017-11-23T03:31:20.863Z,13.42
2017-11-23T03:32:20.851Z,12.34
2017-11-23T03:33:20.858Z,10.20
2017-11-23T03:34:20.838Z,12.28
2017-11-23T03:35:20.829Z,11.34
2017-11-23T03:36:20.822Z,11.15
2017-11-23T03:37:20.812Z,10.32
2017-11-23T03:38:20.807Z,11.60
2017-11-23T03:39:20.803Z,11.44
2017-11-23T03:40:20.791Z,9.78
2017-11-23T03:41:20.779Z,12.58
2017-11-23T03:42:20.782Z,12.11
2017-11-23T03:43:20.777Z,15.04
2017-11-23T03:44:20.778Z,11.82
2017-11-23T03:45:20.780Z,12.13
2017-11-23T03:46:20.759Z,10.44
2017-11-23T03:47:20.767Z,13.01
2017-11-23T03:48:20.754Z,13.69
2017-11-23T03:49:20.734Z,12.58
2017-11-23T03:50:20.736Z,12.25
2017-11-23T03:51:20.721Z,12.64
2017-11-23T03:52:20.704Z,12.96
2017-11-23T03:53:20.713Z,11.67
2017-11-23T03:54:20.701Z,11.01
2017-11-23T03:55:20.688Z,9.94
2017-11-23T03:56:20.681Z,12.81
2017-11-23T03:57:20.679Z,11.55
2017-11-23T03:58:20.666Z,12.17
2017-11-23T03:59:20.656Z,11.49
2017-11-23T04:00:20.656Z,12.14
2017-11-23T04:01:20.651Z,12.86
2017-11-23T04:02:20.649Z,11.60
2017-11-23T04:03:20.643Z,10.49
2017-11-23T04:04:20.631Z,11.66
2017-11-23T04:05:20.627Z,14.53
2017-11-23T04:06:20.616Z,14.45
2017-11-23T04:07:20.604Z,13.84
2017-11-23T04:08:20.598Z,15.40
2017-11-23T04:09:20.588Z,13.84
2017-11-23T04:10:20.582Z,11.99
2017-11-23T04:11:20.586Z,13.15
2017-11-23T04:12:20.570Z,14.94
2017-11-23T04:13:20.560Z,13.46
2017-11-23T04:14:20.553Z,14.17
2017-11-23T04:15:20.549Z,15.38
2017-11-23T04:16:20.538Z,11.83
2017-11-23T04:17:20.534Z,16.20
2017-11-23T04:18:20.524Z,14.52
2017-11-23T04:19:20.519Z,12.79
2017-11-23T04:20:20.514Z,13.03
2017-11-23T04:21:20.501Z,14.01
2017-11-23T04:22:20.493Z,13.43
2017-11-23T04:23:20.492Z,12.04
2017-11-23T04:24:20.478Z,13.79
2017-11-23T04:25:20.477Z,16.73
2017-11-23T04:26:20.470Z,12.08
2017-11-23T04:27:20.464Z,11.49
2017-11-23T04:28:20.456Z,13.57
2017-11-23T04:29:20.446Z,12.50
2017-11-23T04:30:20.438Z,12.45
2017-11-23T04:31:20.450Z,11.92
2017-11-23T04:32:20.423Z,13.82
2017-11-23T04:33:20.414Z,12.89
2017-11-23T04:34:20.404Z,11.97
2017-11-23T04:35:20.403Z,11.41
2017-11-23T04:36:20.392Z,13.37
2017-11-23T04:37:20.388Z,12.07
2017-11-23T04:38:20.378Z,13.93
2017-11-23T04:39:20.374Z,12.63
2017-11-23T04:40:20.377Z,11.50
2017-11-23T04:41:20.359Z,12.98
2017-11-23T04:42:20.351Z,13.39
2017-11-23T04:43:20.344Z,16.79
2017-11-23T04:44:20.336Z,14.55
2017-11-23T04:45:20.332Z,13.45
2017-11-23T04:46:20.323Z,14.00
2017-11-23T04:47:20.311Z,11.81
2017-11-23T04:48:20.304Z,13.42
2017-11-23T04:49:20.301Z,10.83
2017-11-23T04:50:20.304Z,11.11
2017-11-23T04:51:20.280Z,11.18
2017-11-23T04:52:20.286Z,11.14
2017-11-23T04:53:20.262Z,11.44
2017-11-23T04:54:20.257Z,12.90
2017-11-23T04:55:20.249Z,13.61
2017-11-23T04:56:20.253Z,13.07
2017-11-23T04:57:20.239Z,14.28
2017-11-23T04:58:20.235Z,12.63
2017-11-23T04:59:20.237Z,11.32
2017-11-23T05:00:20.218Z,11.59
2017-11-23T05:01:20.207Z,11.38
2017-11-23T05:02:20.207Z,14.49
2017-11-23T05:03:20.194Z,13.86
2017-11-23T05:04:20.185Z,13.89
2017-11-23T05:05:20.177Z,11.69
2017-11-23T05:06:20.171Z,12.64
2017-11-23T05:07:20.154Z,11.92
2017-11-23T05:08:20.157Z,14.04
2017-11-23T05:09:20.151Z,11.82
2017-11-23T05:10:20.145Z,11.39
2017-11-23T05:11:20.138Z,12.99
2017-11-23T05:12:20.130Z,12.35
2017-11-23T05:13:20.119Z,14.92
2017-11-23T05:14:20.116Z,11.78
2017-11-23T05:15:20.107Z,11.75
2017-11-23T05:16:20.994Z,11.74
2017-11-23T05:17:20.098Z,12.87
2017-11-23T05:18:20.083Z,13.83
2017-11-23T05:19:20.075Z,13.59
2017-11-23T05:20:20.096Z,12.15
2017-11-23T05:21:20.059Z,12.56
2017-11-23T05:22:20.058Z,12.80
2017-11-23T05:23:20.047Z,11.67
2017-11-23T05:24:20.043Z,13.79
2017-11-23T05:25:20.034Z,12.79
2017-11-23T05:26:20.030Z,12.11
2017-11-23T05:27:20.016Z,12.42
2017-11-23T05:28:20.034Z,13.71
2017-11-23T05:29:19.998Z,12.19
2017-11-23T05:30:19.993Z,13.63
2017-11-23T05:31:19.990Z,13.32
2017-11-23T05:32:19.990Z,15.03
2017-11-23T05:33:19.976Z,12.14
2017-11-23T05:34:19.962Z,13.17
2017-11-23T05:35:20.004Z,11.06
2017-11-23T05:36:19.968Z,12.60
2017-11-23T05:37:19.938Z,13.52
2017-11-23T05:38:19.947Z,13.39
2017-11-23T05:39:19.939Z,12.54
2017-11-23T05:40:19.932Z,14.72
2017-11-23T05:41:19.977Z,12.44
2017-11-23T05:42:19.936Z,11.94
2017-11-23T05:43:19.917Z,12.90
2017-11-23T05:44:22.201Z,12.50
2017-11-23T05:45:19.914Z,12.11
2017-11-23T05:46:19.876Z,12.61
2017-11-23T05:47:19.875Z,12.67
2017-11-23T05:48:19.867Z,15.70
2017-11-23T05:49:20.506Z,14.05
2017-11-23T05:50:19.846Z,12.51
2017-11-23T05:51:19.847Z,10.94
2017-11-23T05:52:19.840Z,13.35
2017-11-23T05:53:19.833Z,11.35
2017-11-23T05:54:19.825Z,12.08
2017-11-23T05:55:19.817Z,11.89
2017-11-23T05:56:19.810Z,13.46
2017-11-23T05:57:19.805Z,15.06
2017-11-23T05:58:19.798Z,13.07
2017-11-23T05:59:19.785Z,11.56
2017-11-23T06:00:19.783Z,11.73
2017-11-23T06:01:19.776Z,11.48
2017-11-23T06:02:19.765Z,11.83
2017-11-23T06:03:19.760Z,11.63
2017-11-23T06:04:19.750Z,12.77
2017-11-23T06:05:19.743Z,11.80
2017-11-23T06:06:19.737Z,14.20
2017-11-23T06:07:22.535Z,14.44
2017-11-23T06:08:19.723Z,13.47
2017-11-23T06:09:20.531Z,11.10
2017-11-23T06:10:19.721Z,13.13
2017-11-23T06:11:19.704Z,12.65
2017-11-23T06:12:19.700Z,13.19
2017-11-23T06:13:19.709Z,15.10
2017-11-23T06:14:19.694Z,13.02
2017-11-23T06:15:19.668Z,13.80
2017-11-23T06:16:19.663Z,11.54
2017-11-23T06:17:19.655Z,12.86
2017-11-23T06:18:20.531Z,11.46
2017-11-23T06:19:19.647Z,11.74
2017-11-23T06:20:19.650Z,11.17
2017-11-23T06:21:20.521Z,10.27
2017-11-23T06:22:19.628Z,11.64
2017-11-23T06:23:19.618Z,13.98
2017-11-23T06:24:19.606Z,12.03
2017-11-23T06:25:19.606Z,11.31
2017-11-23T06:26:19.594Z,11.12
2017-11-23T06:27:19.588Z,13.58
2017-11-23T06:28:19.575Z,11.43
2017-11-23T06:29:19.574Z,12.90
2017-11-23T06:30:19.571Z,11.88
2017-11-23T06:31:19.564Z,11.57
2017-11-23T06:32:19.608Z,14.34
2017-11-23T06:33:19.563Z,11.90
2017-11-23T06:34:19.683Z,10.51
2017-11-23T06:35:19.537Z,11.07
2017-11-23T06:36:19.529Z,12.83
2017-11-23T06:37:19.520Z,12.76
2017-11-23T06:38:19.516Z,13.30
2017-11-23T06:39:19.501Z,12.56
2017-11-23T06:40:19.500Z,13.45
2017-11-23T06:41:19.493Z,12.49
2017-11-23T06:42:19.485Z,14.92
2017-11-23T06:43:19.488Z,13.38
2017-11-23T06:44:22.417Z,15.52
2017-11-23T06:45:19.466Z,12.42
2017-11-23T06:46:22.037Z,14.08
2017-11-23T06:47:19.462Z,14.64
2017-11-23T06:48:19.441Z,14.30
2017-11-23T06:49:20.035Z,19.34
2017-11-23T06:50:19.435Z,12.81
2017-11-23T06:51:19.429Z,13.40
2017-11-23T06:52:19.419Z,16.07
2017-11-23T06:53:19.405Z,15.18
2017-11-23T06:54:19.410Z,14.02
2017-11-23T06:55:19.401Z,13.86
2017-11-23T06:56:19.382Z,12.36
2017-11-23T06:57:19.377Z,11.48
2017-11-23T06:58:19.380Z,12.08
2017-11-23T06:59:19.364Z,10.72
2017-11-23T07:00:19.363Z,11.70
2017-11-23T07:01:20.052Z,11.05
2017-11-23T07:02:19.340Z,11.24
2017-11-23T07:03:19.356Z,12.67
2017-11-23T07:04:19.345Z,13.12
2017-11-23T07:05:19.329Z,11.64
2017-11-23T07:06:19.338Z,9.77
2017-11-23T07:07:19.320Z,10.23
2017-11-23T07:08:19.313Z,11.68
2017-11-23T07:09:19.306Z,13.09
2017-11-23T07:10:19.313Z,11.47
2017-11-23T07:11:19.303Z,12.20
2017-11-23T07:12:19.287Z,13.60
2017-11-23T07:13:19.285Z,13.38
2017-11-23T07:14:19.267Z,11.70
2017-11-23T07:15:19.265Z,15.18
2017-11-23T07:16:19.258Z,11.61
2017-11-23T07:17:19.268Z,14.56
2017-11-23T07:18:19.243Z,11.59
2017-11-23T07:19:19.237Z,11.40
2017-11-23T07:20:19.238Z,13.50
2017-11-23T07:21:19.231Z,14.79
2017-11-23T07:22:19.225Z,15.16
2017-11-23T07:23:19.213Z,13.31
2017-11-23T07:24:19.205Z,15.36
2017-11-23T07:25:19.189Z,16.44
2017-11-23T07:26:19.190Z,16.60
2017-11-23T07:27:19.181Z,15.50
2017-11-23T07:28:19.231Z,16.85
2017-11-23T07:29:19.171Z,17.96
2017-11-23T07:30:20.063Z,16.73
2017-11-23T07:31:19.163Z,16.20
2017-11-23T07:32:19.150Z,11.19
2017-11-23T07:33:19.138Z,13.58
2017-11-23T07:34:19.133Z,15.01
2017-11-23T07:35:19.126Z,14.43
2017-11-23T07:36:19.119Z,12.79
2017-11-23T07:37:19.112Z,13.68
2017-11-23T07:38:19.106Z,13.27
2017-11-23T07:39:19.096Z,17.66
2017-11-23T07:40:19.090Z,11.74
2017-11-23T07:41:19.090Z,16.26
2017-11-23T07:42:19.078Z,13.48
2017-11-23T07:43:19.080Z,11.75
2017-11-23T07:44:22.059Z,14.45
2017-11-23T07:45:19.062Z,14.23
2017-11-23T07:46:19.054Z,15.73
2017-11-23T07:47:19.049Z,15.98
2017-11-23T07:48:19.052Z,12.62
2017-11-23T07:49:19.040Z,12.14
2017-11-23T07:50:19.028Z,14.45
2017-11-23T07:51:19.565Z,16.69
2017-11-23T07:52:19.013Z,12.78
2017-11-23T07:53:19.011Z,14.64
2017-11-23T07:54:19.001Z,12.62
2017-11-23T07:55:18.991Z,9.92
2017-11-23T07:56:18.985Z,9.66
2017-11-23T07:57:18.981Z,11.00
2017-11-23T07:58:18.973Z,11.65
2017-11-23T07:59:18.972Z,11.00
2017-11-23T08:00:18.963Z,13.65
2017-11-23T08:01:18.956Z,11.58
2017-11-23T08:02:18.954Z,13.33
2017-11-23T08:03:18.944Z,13.53
2017-11-23T08:04:18.938Z,12.79
2017-11-23T08:05:18.929Z,11.96
2017-11-23T08:06:18.925Z,11.26
2017-11-23T08:07:18.921Z,10.01
2017-11-23T08:07:30.914Z,0.40
2017-11-23T08:09:18.904Z,12.10
2017-11-23T08:10:18.899Z,12.01
2017-11-23T08:11:18.892Z,13.49
2017-11-23T08:12:18.884Z,16.14
2017-11-23T08:13:18.877Z,10.75
2017-11-23T08:14:18.869Z,10.35
2017-11-23T08:15:19.579Z,11.76
2017-11-23T08:16:18.876Z,12.14
2017-11-23T08:17:18.865Z,9.76
2017-11-23T08:18:18.854Z,12.06
2017-11-23T08:19:18.855Z,12.19
2017-11-23T08:20:18.839Z,13.03
2017-11-23T08:21:18.831Z,13.65
2017-11-23T08:22:18.832Z,15.71
2017-11-23T08:23:18.824Z,13.15
2017-11-23T08:24:18.812Z,16.05
2017-11-23T08:25:18.805Z,12.76
2017-11-23T08:26:18.787Z,12.20
2017-11-23T08:27:18.807Z,13.24
2017-11-23T08:28:18.776Z,14.17
2017-11-23T08:29:18.780Z,16.72
2017-11-23T08:30:19.588Z,13.01
2017-11-23T08:31:18.769Z,12.14
2017-11-23T08:32:18.761Z,14.18
2017-11-23T08:33:18.756Z,11.51
2017-11-23T08:34:18.754Z,10.36
2017-11-23T08:35:18.753Z,9.74
2017-11-23T08:36:18.739Z,8.30
2017-11-23T08:37:18.724Z,10.61
2017-11-23T08:38:18.724Z,12.93
2017-11-23T08:39:18.714Z,12.97
2017-11-23T08:40:18.700Z,15.22
2017-11-23T08:41:18.701Z,12.07
2017-11-23T08:42:18.701Z,15.67
2017-11-23T08:43:18.699Z,16.76
2017-11-23T08:44:18.677Z,12.08
2017-11-23T08:45:18.686Z,13.03
2017-11-23T08:46:19.582Z,11.16
2017-11-23T08:47:18.670Z,12.26
2017-11-23T08:48:18.664Z,11.91
2017-11-23T08:49:18.662Z,8.90
2017-11-23T08:50:18.638Z,10.41
2017-11-23T08:51:18.639Z,10.59
2017-11-23T08:52:18.627Z,10.30
2017-11-23T08:53:18.622Z,11.02
2017-11-23T08:54:18.613Z,11.26
2017-11-23T08:55:18.617Z,11.73
2017-11-23T08:56:18.602Z,10.58
2017-11-23T08:57:18.604Z,8.94
2017-11-23T08:58:18.590Z,7.95
2017-11-23T08:59:18.608Z,7.91
2017-11-23T09:00:18.589Z,7.78
2017-11-23T09:01:18.573Z,8.47
2017-11-23T09:02:18.565Z,7.43
2017-11-23T09:03:18.563Z,7.92
2017-11-23T09:04:18.558Z,9.97
2017-11-23T09:05:18.551Z,7.92
2017-11-23T09:06:18.543Z,8.35
2017-11-23T09:07:18.533Z,8.04
2017-11-23T09:08:18.536Z,6.63
2017-11-23T09:09:18.534Z,7.68
2017-11-23T09:10:18.532Z,7.39
2017-11-23T09:11:18.534Z,6.67
2017-11-23T09:12:18.530Z,6.62
2017-11-23T09:13:18.505Z,6.90
2017-11-23T09:14:18.495Z,6.91
2017-11-23T09:15:18.506Z,6.70
2017-11-23T09:16:18.500Z,8.47
2017-11-23T09:17:18.489Z,7.60
2017-11-23T09:18:18.487Z,8.04
2017-11-23T09:19:18.478Z,8.09
2017-11-23T09:20:18.485Z,7.84
2017-11-23T09:21:18.475Z,7.20
2017-11-23T09:22:18.483Z,8.95
2017-11-23T09:23:18.479Z,7.12
2017-11-23T09:24:18.450Z,8.79
2017-11-23T09:25:18.455Z,7.74
2017-11-23T09:26:18.448Z,10.04
2017-11-23T09:27:18.446Z,7.49
2017-11-23T09:28:18.429Z,6.51
2017-11-23T09:29:18.424Z,8.62
2017-11-23T09:30:18.418Z,8.85
2017-11-23T09:31:18.423Z,6.70
2017-11-23T09:32:18.421Z,6.28
2017-11-23T09:33:18.417Z,9.70
2017-11-23T09:34:18.405Z,7.38
2017-11-23T09:35:18.405Z,8.43
2017-11-23T09:36:18.398Z,7.28
2017-11-23T09:37:18.408Z,6.02
2017-11-23T09:38:18.385Z,5.60
2017-11-23T09:39:18.385Z,6.12
2017-11-23T09:40:18.394Z,6.65
2017-11-23T09:41:18.378Z,8.54
2017-11-23T09:42:18.372Z,6.91
2017-11-23T09:43:18.372Z,7.40
2017-11-23T09:44:18.370Z,6.19
2017-11-23T09:45:18.374Z,6.12
2017-11-23T09:46:18.360Z,6.57
2017-11-23T09:47:18.351Z,5.38
2017-11-23T09:48:18.362Z,6.07
2017-11-23T09:49:18.340Z,6.34
2017-11-23T09:50:18.343Z,6.25
2017-11-23T09:51:18.351Z,7.53
2017-11-23T09:52:18.329Z,5.46
2017-11-23T09:53:19.121Z,5.12
2017-11-23T09:54:18.330Z,5.09
2017-11-23T09:55:18.323Z,7.21
2017-11-23T09:56:18.310Z,9.54
2017-11-23T09:57:18.302Z,8.73
2017-11-23T09:58:18.306Z,5.42
2017-11-23T09:59:18.305Z,5.26
2017-11-23T10:00:18.297Z,5.96
2017-11-23T10:01:18.302Z,8.39
2017-11-23T10:02:18.297Z,6.90
2017-11-23T10:03:18.297Z,11.30
2017-11-23T10:04:18.303Z,6.93
2017-11-23T10:05:18.286Z,7.52
2017-11-23T10:06:18.277Z,7.71
2017-11-23T10:07:18.272Z,7.24
2017-11-23T10:08:18.268Z,8.19
2017-11-23T10:09:18.280Z,6.46
2017-11-23T10:10:18.278Z,7.86
2017-11-23T10:11:18.266Z,8.34
2017-11-23T10:12:18.251Z,6.80
2017-11-23T10:13:18.239Z,11.22
2017-11-23T10:14:18.242Z,7.06
2017-11-23T10:15:18.250Z,6.52
2017-11-23T10:16:18.239Z,6.98
2017-11-23T10:17:18.229Z,5.78
2017-11-23T10:18:18.228Z,7.87
2017-11-23T10:19:18.225Z,5.96
2017-11-23T10:20:18.222Z,6.95
2017-11-23T10:21:18.222Z,6.36
2017-11-23T10:22:18.217Z,7.23
2017-11-23T10:23:18.208Z,8.02
2017-11-23T10:24:18.201Z,7.00
2017-11-23T10:25:18.199Z,6.32
2017-11-23T10:26:18.193Z,7.12
2017-11-23T10:27:18.192Z,6.54
2017-11-23T10:28:18.187Z,7.54
2017-11-23T10:29:18.187Z,8.31
2017-11-23T10:30:18.186Z,6.84
2017-11-23T10:31:18.186Z,7.38
2017-11-23T10:32:19.137Z,7.14
2017-11-23T10:33:18.176Z,6.87
2017-11-23T10:34:18.177Z,5.80
2017-11-23T10:35:18.164Z,6.70
2017-11-23T10:36:18.163Z,7.58
2017-11-23T10:37:18.162Z,9.70
2017-11-23T10:38:18.151Z,8.20
2017-11-23T10:39:18.177Z,8.46
2017-11-23T10:40:18.150Z,7.39
2017-11-23T10:41:18.170Z,7.13
2017-11-23T10:42:18.159Z,8.87
2017-11-23T10:43:18.148Z,6.97
2017-11-23T10:44:18.153Z,8.61
2017-11-23T10:45:18.146Z,8.87
2017-11-23T10:46:18.124Z,6.70
2017-11-23T10:47:18.125Z,6.82
2017-11-23T10:48:18.119Z,9.60
2017-11-23T10:49:18.117Z,7.13
2017-11-23T10:50:18.141Z,7.84
2017-11-23T10:51:18.140Z,8.33
2017-11-23T10:52:18.649Z,8.91
2017-11-23T10:53:18.111Z,7.78
2017-11-23T10:54:18.102Z,7.84
2017-11-23T10:55:18.109Z,8.42
2017-11-23T10:56:18.099Z,7.21
2017-11-23T10:57:18.097Z,7.64
2017-11-23T10:58:18.097Z,9.79
2017-11-23T10:59:18.652Z,5.62
2017-11-23T11:00:18.094Z,6.26
2017-11-23T11:01:18.079Z,7.38
2017-11-23T11:02:18.078Z,8.08
2017-11-23T11:03:18.069Z,6.96
2017-11-23T11:04:18.065Z,7.73
2017-11-23T11:05:18.072Z,7.72
2017-11-23T11:06:18.076Z,6.32
2017-11-23T11:07:18.073Z,6.77
2017-11-23T11:08:18.058Z,8.08
2017-11-23T11:09:18.055Z,7.29
2017-11-23T11:10:18.056Z,6.94
2017-11-23T11:11:18.063Z,5.91
2017-11-23T11:12:18.050Z,5.68
2017-11-23T11:13:18.053Z,7.21
2017-11-23T11:14:18.046Z,6.70
2017-11-23T11:15:18.045Z,5.53
2017-11-23T11:16:18.041Z,5.87
2017-11-23T11:17:18.041Z,6.73
2017-11-23T11:18:18.042Z,6.68
2017-11-23T11:19:18.028Z,4.94
2017-11-23T11:20:18.038Z,6.82
2017-11-23T11:21:18.028Z,8.92
2017-11-23T11:22:18.047Z,5.73
2017-11-23T11:23:18.032Z,7.53
2017-11-23T11:24:18.011Z,5.66
2017-11-23T11:25:18.020Z,6.79
2017-11-23T11:26:18.014Z,6.26
2017-11-23T11:27:18.008Z,6.10
2017-11-23T11:28:18.033Z,9.59
2017-11-23T11:29:18.007Z,7.42
2017-11-23T11:30:18.012Z,7.82
2017-11-23T11:31:18.007Z,7.20
2017-11-23T11:32:18.021Z,7.38
2017-11-23T11:33:18.001Z,7.19
2017-11-23T11:34:18.025Z,5.53
2017-11-23T11:35:17.990Z,6.84
2017-11-23T11:36:17.983Z,7.20
2017-11-23T11:37:17.996Z,5.99
2017-11-23T11:38:17.982Z,6.49
2017-11-23T11:39:17.993Z,7.62
2017-11-23T11:40:18.000Z,12.79
2017-11-23T11:41:17.976Z,8.09
2017-11-23T11:42:18.683Z,8.96
2017-11-23T11:43:17.977Z,9.34
2017-11-23T11:44:17.969Z,6.26
2017-11-23T11:45:17.971Z,8.81
2017-11-23T11:46:17.987Z,9.55
2017-11-23T11:47:17.969Z,9.34
2017-11-23T11:48:17.957Z,6.70
2017-11-23T11:49:17.963Z,8.64
2017-11-23T11:50:17.957Z,7.10
2017-11-23T11:51:17.954Z,7.63
2017-11-23T11:52:17.961Z,9.65
2017-11-23T11:53:17.942Z,9.76
2017-11-23T11:54:17.945Z,15.64
2017-11-23T11:55:17.937Z,8.96
2017-11-23T11:56:17.938Z,8.32
2017-11-23T11:57:17.940Z,9.05
2017-11-23T11:58:17.977Z,7.31
2017-11-23T11:59:17.931Z,9.05
2017-11-23T12:00:17.928Z,6.69
2017-11-23T12:01:18.728Z,7.89
2017-11-23T12:02:17.925Z,8.63
2017-11-23T12:03:17.922Z,7.96
2017-11-23T12:04:17.925Z,6.66
2017-11-23T12:05:17.915Z,6.76
2017-11-23T12:06:17.914Z,6.95
2017-11-23T12:07:17.913Z,8.33
2017-11-23T12:08:17.912Z,10.01
2017-11-23T12:09:17.912Z,9.48
2017-11-23T12:10:17.909Z,6.94
2017-11-23T12:11:17.903Z,9.48
2017-11-23T12:12:17.916Z,9.66
2017-11-23T12:13:17.901Z,7.22
2017-11-23T12:14:17.901Z,8.51
2017-11-23T12:15:17.902Z,7.50
2017-11-23T12:16:18.682Z,9.20
2017-11-23T12:17:17.887Z,7.17
2017-11-23T12:18:17.882Z,10.20
2017-11-23T12:19:17.878Z,9.00
2017-11-23T12:20:17.875Z,9.78
2017-11-23T12:21:17.881Z,8.48
2017-11-23T12:22:18.054Z,9.09
2017-11-23T12:23:17.878Z,8.03
2017-11-23T12:24:17.874Z,11.06
2017-11-23T12:25:17.876Z,9.69
2017-11-23T12:26:17.878Z,9.03
2017-11-23T12:27:17.865Z,7.22
2017-11-23T12:28:17.860Z,8.10
2017-11-23T12:29:17.869Z,10.20
2017-11-23T12:30:17.860Z,9.85
2017-11-23T12:31:17.859Z,8.28
2017-11-23T12:32:17.876Z,6.51
2017-11-23T12:33:17.844Z,8.68
2017-11-23T12:34:17.846Z,8.06
2017-11-23T12:35:17.841Z,9.09
2017-11-23T12:36:17.837Z,8.31
2017-11-23T12:37:17.838Z,8.92
2017-11-23T12:38:17.835Z,10.10
2017-11-23T12:39:17.833Z,9.41
2017-11-23T12:40:17.832Z,6.51
2017-11-23T12:41:17.821Z,8.12
2017-11-23T12:42:17.829Z,9.70
2017-11-23T12:43:17.815Z,10.79
2017-11-23T12:44:17.815Z,8.80
2017-11-23T12:45:17.817Z,10.08
2017-11-23T12:46:17.807Z,9.82
2017-11-23T12:47:17.805Z,8.95
2017-11-23T12:48:17.825Z,8.25
2017-11-23T12:49:17.812Z,8.34
2017-11-23T12:50:17.796Z,8.59
2017-11-23T12:51:17.805Z,10.50
2017-11-23T12:52:17.800Z,11.82
2017-11-23T12:53:17.791Z,7.08
2017-11-23T12:54:17.786Z,11.28
2017-11-23T12:55:17.784Z,8.56
2017-11-23T12:56:17.795Z,7.82
2017-11-23T12:57:17.774Z,7.83
2017-11-23T12:58:17.775Z,7.88
2017-11-23T12:59:17.770Z,7.83
2017-11-23T13:00:17.762Z,8.09